Terminal Aerodrome Forecast
Issued by NWS

Home | Current Version | Previous Version | Text Only | Print | Product List | Glossary On
Versions: 1 2 3 4 5 6 7 8 9 10 11 12 13 14
000
FTUS45 KSLC 211133
TAFLGU
TAF
KLGU 211133Z 2112/2212 VRB05KT P6SM FEW100 SCT200
     FM211800 34008KT P6SM FEW100
     FM220300 VRB04KT P6SM FEW200=

USA.gov is the U.S. government's official web portal to all federal, state and local government web resources and services.